Time;durP1;ratioP1;P1;durP2;ratioP2;P2;SDS_P1;SDS_P2;PMS_P1;PMS_P2;Temp;Humidity;BMP_temperature;BMP_pressure;BME280_temperature;BME280_humidity;BME280_pressure;Samples;Min_cycle;Max_cycle;Signal;HPM_P1;HPM_P2
2024/01/17 00:01:23;;;;;;;10.40;5.22;;;0.50;99.90;;;;;;5090709;28;20371;-67
2024/01/17 00:03:49;;;;;;;10.00;5.72;;;0.50;99.90;;;;;;5090685;28;20492;-67
2024/01/17 00:06:15;;;;;;;11.30;5.65;;;0.60;99.90;;;;;;5074348;28;20113;-67
2024/01/17 00:08:41;;;;;;;10.23;5.72;;;0.60;99.90;;;;;;5092556;28;20059;-68
2024/01/17 00:11:06;;;;;;;12.13;6.68;;;0.50;99.90;;;;;;5093427;28;20136;-67
2024/01/17 00:13:34;;;;;;;10.57;5.68;;;0.50;99.90;;;;;;5091922;28;20040;-66
2024/01/17 00:16:00;;;;;;;15.88;6.32;;;0.60;99.90;;;;;;5090438;28;20082;-66
2024/01/17 00:18:25;;;;;;;11.73;5.65;;;0.50;99.90;;;;;;5071660;28;20040;-66
2024/01/17 00:20:51;;;;;;;14.13;6.28;;;0.50;99.90;;;;;;5090128;28;20128;-66
2024/01/17 00:23:17;;;;;;;11.68;6.65;;;0.60;99.90;;;;;;5090045;28;20050;-66
2024/01/17 00:25:43;;;;;;;12.40;6.25;;;0.50;99.90;;;;;;5071939;28;20054;-66
2024/01/17 00:28:08;;;;;;;11.35;6.22;;;0.50;99.90;;;;;;5071528;28;20051;-66
2024/01/17 00:30:34;;;;;;;13.68;6.35;;;0.40;99.90;;;;;;5071950;28;20099;-66
2024/01/17 00:33:00;;;;;;;13.70;6.57;;;0.30;99.90;;;;;;5071514;28;20044;-66
2024/01/17 00:35:25;;;;;;;13.23;6.93;;;0.40;99.90;;;;;;5071406;28;20028;-65
2024/01/17 00:37:51;;;;;;;10.40;6.55;;;0.50;99.90;;;;;;5071557;28;20100;-66
2024/01/17 00:40:17;;;;;;;15.23;7.38;;;0.50;99.90;;;;;;5090002;28;20040;-66
2024/01/17 00:42:42;;;;;;;18.20;7.07;;;0.40;99.90;;;;;;5071641;28;20379;-66
2024/01/17 00:45:09;;;;;;;11.65;7.55;;;0.40;99.90;;;;;;5071622;28;20067;-66
2024/01/17 00:47:35;;;;;;;13.18;7.13;;;0.40;99.90;;;;;;5089442;28;20051;-67
2024/01/17 00:50:01;;;;;;;17.20;7.93;;;0.40;99.90;;;;;;5054337;28;20047;-67
2024/01/17 00:52:27;;;;;;;9.93;7.45;;;0.40;99.90;;;;;;5089311;28;20048;-66
2024/01/17 00:54:52;;;;;;;14.63;7.57;;;0.30;99.90;;;;;;5069985;28;20078;-67
2024/01/17 00:57:18;;;;;;;16.42;8.15;;;0.20;99.90;;;;;;5089559;28;20459;-66
2024/01/17 00:59:44;;;;;;;15.93;7.65;;;0.30;99.90;;;;;;5070725;28;20044;-67
2024/01/17 01:02:09;;;;;;;14.93;7.88;;;0.30;99.90;;;;;;5070723;28;20050;-67
2024/01/17 01:04:35;;;;;;;15.80;8.93;;;0.40;99.90;;;;;;5089327;28;20036;-67
2024/01/17 01:07:01;;;;;;;18.05;8.90;;;0.20;99.90;;;;;;5053778;28;20117;-67
2024/01/17 01:09:28;;;;;;;18.63;8.10;;;0.30;99.90;;;;;;5070623;28;20382;-67
2024/01/17 01:11:53;;;;;;;14.63;8.18;;;0.30;99.90;;;;;;5088843;28;20040;-67
2024/01/17 01:14:20;;;;;;;16.30;8.65;;;0.20;99.90;;;;;;5089142;28;20279;-67
2024/01/17 01:16:45;;;;;;;19.08;8.88;;;0.20;99.90;;;;;;5053853;28;20105;-67
2024/01/17 01:19:11;;;;;;;16.73;9.10;;;0.20;99.90;;;;;;5070376;28;20040;-67
2024/01/17 01:21:37;;;;;;;14.18;8.68;;;0.10;99.90;;;;;;5088707;28;20055;-67
2024/01/17 01:24:03;;;;;;;14.13;8.60;;;0.10;99.90;;;;;;5070646;28;20036;-67
2024/01/17 01:26:28;;;;;;;17.23;9.60;;;0.00;99.90;;;;;;5088736;28;20147;-67
2024/01/17 01:28:54;;;;;;;15.50;8.40;;;0.10;99.90;;;;;;5070446;28;20051;-67
2024/01/17 01:31:20;;;;;;;13.90;9.02;;;0.10;99.90;;;;;;5070321;28;20051;-67
2024/01/17 01:33:46;;;;;;;14.82;9.30;;;0.10;99.90;;;;;;5070565;28;20152;-67
2024/01/17 01:36:11;;;;;;;16.75;8.98;;;0.10;99.90;;;;;;5070347;28;20052;-67
2024/01/17 01:38:37;;;;;;;16.20;8.95;;;0.00;99.90;;;;;;5088079;28;20055;-67
2024/01/17 01:41:03;;;;;;;18.40;10.10;;;0.00;99.90;;;;;;5070356;28;20048;-66
2024/01/17 01:43:29;;;;;;;16.17;8.95;;;0.00;99.90;;;;;;5053509;28;20040;-67
2024/01/17 01:46:04;;;;;;;17.58;9.93;;;-0.10;99.90;;;;;;5070074;28;20047;-67
2024/01/17 01:48:31;;;;;;;22.30;10.48;;;-0.10;99.90;;;;;;5070166;28;20052;-67
2024/01/17 01:50:57;;;;;;;21.58;11.05;;;-0.10;99.90;;;;;;5070323;28;20052;-67
2024/01/17 01:53:24;;;;;;;18.77;10.70;;;-0.20;99.90;;;;;;5069738;28;20509;-67
2024/01/17 01:55:52;;;;;;;17.20;10.55;;;-0.10;99.90;;;;;;5053031;28;20055;-67
2024/01/17 01:58:19;;;;;;;18.60;11.52;;;0.00;99.90;;;;;;5069740;28;20047;-67
2024/01/17 02:00:46;;;;;;;14.35;10.25;;;0.00;99.90;;;;;;5069439;28;20051;-66
2024/01/17 02:03:13;;;;;;;16.13;10.57;;;0.00;99.90;;;;;;5069845;28;20044;-67
2024/01/17 02:05:39;;;;;;;23.00;11.43;;;0.00;99.90;;;;;;5088171;28;20078;-67
2024/01/17 02:08:06;;;;;;;15.40;9.55;;;0.00;99.90;;;;;;5087705;28;20083;-67
2024/01/17 02:10:32;;;;;;;17.58;10.40;;;-0.10;99.90;;;;;;5087792;28;20056;-65
2024/01/17 02:12:59;;;;;;;19.33;10.32;;;-0.10;99.90;;;;;;5088323;28;20260;-66
2024/01/17 02:15:25;;;;;;;19.02;10.63;;;-0.20;99.90;;;;;;5069585;28;20151;-66
2024/01/17 02:17:50;;;;;;;20.50;10.93;;;-0.10;99.90;;;;;;5087916;28;20028;-66
2024/01/17 02:20:17;;;;;;;18.70;10.93;;;0.10;99.90;;;;;;5069616;28;20075;-66
2024/01/17 02:22:43;;;;;;;22.90;11.88;;;0.10;99.90;;;;;;5087901;28;20047;-66
2024/01/17 02:25:08;;;;;;;19.88;11.30;;;0.00;99.90;;;;;;5088166;28;20043;-66
2024/01/17 02:27:34;;;;;;;19.48;10.55;;;0.00;99.90;;;;;;5052727;28;20418;-66
2024/01/17 02:30:00;;;;;;;17.83;10.68;;;0.00;99.90;;;;;;5088167;28;20502;-66
2024/01/17 02:32:26;;;;;;;17.77;10.48;;;-0.10;99.90;;;;;;5087996;28;20362;-66
2024/01/17 02:34:52;;;;;;;23.88;12.38;;;-0.10;99.90;;;;;;5069530;28;20050;-66
2024/01/17 02:37:18;;;;;;;18.95;10.93;;;-0.10;99.90;;;;;;5087887;28;20052;-66
2024/01/17 02:39:44;;;;;;;20.40;12.52;;;-0.10;99.90;;;;;;5087512;28;20036;-67
2024/01/17 02:42:09;;;;;;;19.75;11.10;;;0.00;99.90;;;;;;5069665;28;20570;-67
2024/01/17 02:44:35;;;;;;;20.02;10.98;;;0.00;99.90;;;;;;5087881;28;20127;-67
2024/01/17 02:47:01;;;;;;;19.30;9.57;;;-0.10;99.90;;;;;;5069702;28;20372;-67
2024/01/17 02:49:26;;;;;;;20.58;10.88;;;0.00;99.90;;;;;;5069883;28;20040;-67
2024/01/17 02:51:52;;;;;;;21.63;11.07;;;-0.10;99.90;;;;;;5091339;28;20101;-67
2024/01/17 02:54:18;;;;;;;17.25;10.15;;;-0.20;99.90;;;;;;5091348;28;20387;-67
2024/01/17 02:56:44;;;;;;;16.58;10.07;;;-0.10;99.90;;;;;;5091447;28;20113;-67
2024/01/17 02:59:09;;;;;;;18.77;11.27;;;-0.10;99.90;;;;;;5072631;28;20121;-67
2024/01/17 03:01:35;;;;;;;17.70;11.43;;;-0.20;99.90;;;;;;5091368;28;20073;-67
2024/01/17 03:04:01;;;;;;;16.42;10.30;;;-0.20;99.90;;;;;;5072728;28;20412;-67
2024/01/17 03:06:26;;;;;;;15.68;11.25;;;-0.20;99.90;;;;;;5090932;28;20050;-67
2024/01/17 03:08:52;;;;;;;16.17;11.60;;;-0.20;99.90;;;;;;5090737;28;20087;-67
2024/01/17 03:11:18;;;;;;;18.33;10.70;;;-0.10;99.90;;;;;;5072920;28;20036;-67
2024/01/17 03:13:43;;;;;;;19.70;11.07;;;-0.20;99.90;;;;;;5090954;28;20537;-67
2024/01/17 03:16:09;;;;;;;16.65;10.20;;;-0.20;99.90;;;;;;5091097;28;20044;-66
2024/01/17 03:18:37;;;;;;;19.90;10.18;;;-0.20;99.90;;;;;;5090970;28;20062;-67
2024/01/17 03:21:06;;;;;;;15.85;10.25;;;-0.10;99.90;;;;;;5090839;28;20032;-67
2024/01/17 03:23:31;;;;;;;22.48;10.98;;;-0.20;99.90;;;;;;5071944;28;20039;-67
2024/01/17 03:25:57;;;;;;;21.65;12.30;;;-0.30;99.90;;;;;;5090921;28;20040;-67
2024/01/17 03:28:23;;;;;;;20.77;10.88;;;-0.20;99.90;;;;;;5090979;28;20028;-66
2024/01/17 03:30:48;;;;;;;22.73;11.93;;;-0.30;99.90;;;;;;5072798;28;20102;-66
2024/01/17 03:33:14;;;;;;;19.67;11.27;;;-0.30;99.90;;;;;;5072634;28;20134;-67
2024/01/17 03:35:42;;;;;;;20.85;11.52;;;-0.30;99.90;;;;;;5090647;28;20044;-66
2024/01/17 03:38:08;;;;;;;18.10;10.93;;;-0.30;99.90;;;;;;5072394;28;20083;-67
2024/01/17 03:40:33;;;;;;;17.63;10.73;;;-0.20;99.90;;;;;;5090368;28;20071;-66
2024/01/17 03:42:59;;;;;;;22.48;11.65;;;-0.30;99.90;;;;;;5071958;28;20044;-67
2024/01/17 03:45:26;;;;;;;20.42;10.43;;;-0.10;99.90;;;;;;5089823;28;20072;-67
2024/01/17 03:47:52;;;;;;;22.45;11.68;;;-0.20;99.90;;;;;;5089900;28;20108;-67
2024/01/17 03:50:18;;;;;;;20.35;10.95;;;-0.30;99.90;;;;;;5090328;28;20032;-67
2024/01/17 03:52:44;;;;;;;18.35;9.75;;;-0.30;99.90;;;;;;5090425;28;20063;-67
2024/01/17 03:55:10;;;;;;;20.13;9.20;;;-0.30;99.90;;;;;;5090193;28;20036;-67
2024/01/17 03:57:35;;;;;;;16.63;8.68;;;-0.30;99.90;;;;;;5090094;28;20086;-67
2024/01/17 04:00:04;;;;;;;13.40;9.50;;;-0.30;99.90;;;;;;5071733;28;20100;-67
2024/01/17 04:02:29;;;;;;;18.75;10.02;;;-0.30;99.90;;;;;;5071040;28;20349;-67
2024/01/17 04:04:55;;;;;;;14.55;8.93;;;-0.40;99.90;;;;;;5089968;28;20047;-67
2024/01/17 04:07:22;;;;;;;19.92;9.23;;;-0.50;99.90;;;;;;5071381;28;20548;-67
2024/01/17 04:09:48;;;;;;;15.98;9.73;;;-0.40;99.90;;;;;;5089803;28;20094;-67
2024/01/17 04:12:14;;;;;;;18.45;9.48;;;-0.50;99.90;;;;;;5089863;28;20404;-67
2024/01/17 04:14:40;;;;;;;14.20;8.88;;;-0.40;99.90;;;;;;5089941;28;20044;-67
2024/01/17 04:17:05;;;;;;;15.77;8.68;;;-0.50;99.90;;;;;;5089988;28;20063;-67
2024/01/17 04:19:31;;;;;;;16.60;9.15;;;-0.50;99.90;;;;;;5089641;28;20411;-66
2024/01/17 04:21:57;;;;;;;15.02;9.98;;;-0.40;99.90;;;;;;5071266;28;20085;-66
2024/01/17 04:24:26;;;;;;;20.90;9.30;;;-0.40;99.90;;;;;;5089301;28;20047;-66
2024/01/17 04:26:55;;;;;;;14.85;8.65;;;-0.50;99.90;;;;;;5089270;28;20048;-66
2024/01/17 04:29:21;;;;;;;17.65;10.07;;;-0.40;99.90;;;;;;5070834;28;20056;-65
2024/01/17 04:31:47;;;;;;;16.67;8.60;;;-0.40;99.90;;;;;;5054296;28;20048;-66
2024/01/17 04:34:12;;;;;;;16.02;9.32;;;-0.40;99.90;;;;;;5089126;28;20032;-66
2024/01/17 04:36:38;;;;;;;18.15;9.35;;;-0.30;99.90;;;;;;5089273;28;20097;-66
2024/01/17 04:39:04;;;;;;;11.35;8.25;;;-0.50;99.90;;;;;;5088977;28;20147;-66
2024/01/17 04:41:30;;;;;;;16.58;9.10;;;-0.40;99.90;;;;;;5070574;28;20064;-66
2024/01/17 04:43:55;;;;;;;16.00;8.98;;;-0.40;99.90;;;;;;5088946;28;20074;-66
2024/01/17 04:46:21;;;;;;;20.33;8.68;;;-0.40;99.90;;;;;;5053962;28;20743;-66
2024/01/17 04:48:47;;;;;;;15.73;8.23;;;-0.30;99.90;;;;;;5054003;28;20051;-67
2024/01/17 04:51:13;;;;;;;14.57;9.63;;;-0.20;99.90;;;;;;5088708;28;20087;-66
2024/01/17 04:53:42;;;;;;;18.00;9.95;;;-0.30;99.90;;;;;;5088409;28;20032;-67
2024/01/17 04:56:14;;;;;;;16.10;8.77;;;-0.30;99.90;;;;;;5070513;28;20401;-67
2024/01/17 04:58:39;;;;;;;17.35;9.88;;;-0.30;99.90;;;;;;5088646;28;20046;-67
2024/01/17 05:01:05;;;;;;;16.00;10.25;;;-0.20;99.90;;;;;;5088366;28;20110;-67
2024/01/17 05:03:32;;;;;;;19.25;9.73;;;-0.20;99.90;;;;;;5088626;28;20553;-68
2024/01/17 05:05:59;;;;;;;19.42;10.77;;;-0.20;99.90;;;;;;5070067;28;20051;-67
2024/01/17 05:08:25;;;;;;;14.10;8.77;;;-0.20;99.90;;;;;;5069224;28;20058;-67
2024/01/17 05:10:50;;;;;;;13.57;8.20;;;-0.20;99.90;;;;;;5053396;28;20485;-67
2024/01/17 05:13:16;;;;;;;13.63;8.98;;;-0.30;99.90;;;;;;5089025;28;20090;-67
2024/01/17 05:15:42;;;;;;;13.32;8.32;;;-0.20;99.90;;;;;;5070278;28;20051;-67
2024/01/17 05:18:08;;;;;;;12.63;8.63;;;-0.20;99.90;;;;;;5088759;28;20070;-67
2024/01/17 05:20:34;;;;;;;14.52;9.73;;;-0.10;99.90;;;;;;5053578;28;20031;-67
2024/01/17 05:23:01;;;;;;;13.07;8.70;;;-0.10;99.90;;;;;;5087974;28;20051;-67
2024/01/17 05:25:27;;;;;;;14.27;8.60;;;-0.20;99.90;;;;;;5069884;28;20488;-67
2024/01/17 05:27:53;;;;;;;15.45;8.15;;;-0.30;99.90;;;;;;5069993;28;20044;-67
2024/01/17 05:30:26;;;;;;;14.20;7.60;;;-0.40;99.90;;;;;;5070065;28;20121;-67
2024/01/17 05:32:53;;;;;;;11.95;8.23;;;-0.40;99.90;;;;;;5088822;28;20042;-67
2024/01/17 05:35:20;;;;;;;15.77;8.43;;;-0.30;99.90;;;;;;5069832;28;20051;-67
2024/01/17 05:37:46;;;;;;;14.35;9.43;;;-0.30;99.90;;;;;;5052996;28;20039;-67
2024/01/17 05:40:13;;;;;;;10.77;8.60;;;-0.20;99.90;;;;;;5069727;28;20047;-67
2024/01/17 05:42:39;;;;;;;14.18;7.90;;;-0.20;99.90;;;;;;5069881;28;20043;-67
2024/01/17 05:45:07;;;;;;;17.02;9.27;;;-0.30;99.90;;;;;;5069551;28;20048;-67
2024/01/17 05:47:37;;;;;;;16.05;8.57;;;-0.20;99.90;;;;;;5069643;28;20036;-67
2024/01/17 05:50:04;;;;;;;13.73;9.02;;;-0.30;99.90;;;;;;5069724;28;20108;-67
2024/01/17 05:52:30;;;;;;;13.85;7.65;;;-0.40;99.90;;;;;;5069253;28;20047;-66
2024/01/17 05:54:56;;;;;;;16.92;9.20;;;-0.50;99.90;;;;;;5069480;28;20055;-67
2024/01/17 05:57:22;;;;;;;13.90;9.30;;;-0.40;99.90;;;;;;5087902;28;20048;-67
2024/01/17 05:59:48;;;;;;;11.93;8.50;;;-0.40;99.90;;;;;;5052854;28;20036;-67
2024/01/17 06:02:14;;;;;;;15.77;8.23;;;-0.40;99.90;;;;;;5069513;28;20337;-66
2024/01/17 06:04:40;;;;;;;15.68;9.10;;;-0.50;99.90;;;;;;5053128;28;20400;-67
2024/01/17 06:07:05;;;;;;;22.88;9.07;;;-0.50;99.90;;;;;;5087421;28;20054;-67
2024/01/17 06:09:31;;;;;;;14.05;8.73;;;-0.50;99.90;;;;;;5069186;28;20074;-67
2024/01/17 06:11:57;;;;;;;14.10;8.25;;;-0.60;99.90;;;;;;5052625;28;20048;-66
2024/01/17 06:14:22;;;;;;;13.95;8.30;;;-0.60;99.90;;;;;;5088127;28;20039;-67
2024/01/17 06:16:48;;;;;;;14.60;9.00;;;-0.60;99.90;;;;;;5087841;28;20137;-66
2024/01/17 06:19:16;;;;;;;16.23;9.25;;;-0.60;99.90;;;;;;5069482;28;20091;-67
2024/01/17 06:21:42;;;;;;;13.43;8.63;;;-0.70;99.90;;;;;;5069184;28;20152;-67
2024/01/17 06:24:08;;;;;;;15.32;9.10;;;-0.70;99.90;;;;;;5088222;28;20048;-67
2024/01/17 06:26:33;;;;;;;15.10;9.63;;;-0.90;99.90;;;;;;5056691;28;20131;-67
2024/01/17 06:28:59;;;;;;;14.20;8.95;;;-0.80;99.90;;;;;;5071782;28;20043;-67
2024/01/17 06:31:25;;;;;;;17.65;8.95;;;-0.80;99.90;;;;;;5073038;28;20040;-67
2024/01/17 06:33:52;;;;;;;16.58;9.65;;;-0.80;99.90;;;;;;5073150;28;20134;-66
2024/01/17 06:36:17;;;;;;;14.82;9.32;;;-0.80;99.90;;;;;;5090986;28;20044;-67
2024/01/17 06:38:44;;;;;;;16.33;8.50;;;-0.80;99.90;;;;;;5091358;28;20077;-67
2024/01/17 06:41:09;;;;;;;15.18;8.93;;;-0.90;99.90;;;;;;5091427;28;20134;-66
2024/01/17 06:43:35;;;;;;;15.48;9.63;;;-0.90;99.90;;;;;;5091030;28;20136;-66
2024/01/17 06:46:02;;;;;;;15.45;9.40;;;-1.00;99.90;;;;;;5091122;28;20055;-65
2024/01/17 06:48:28;;;;;;;19.15;10.75;;;-0.70;99.90;;;;;;5056385;28;20087;-64
2024/01/17 06:50:53;;;;;;;17.38;10.23;;;-0.90;99.90;;;;;;5092132;28;20082;-66
2024/01/17 06:53:21;;;;;;;15.10;8.43;;;-0.70;99.90;;;;;;5057443;28;20494;-67
2024/01/17 06:55:47;;;;;;;20.80;10.48;;;-0.90;99.90;;;;;;5091362;28;20558;-67
2024/01/17 06:58:13;;;;;;;17.23;8.73;;;-0.90;99.90;;;;;;5073077;28;20051;-66
2024/01/17 07:00:38;;;;;;;17.00;9.70;;;-1.00;99.90;;;;;;5056635;28;20055;-66
2024/01/17 07:03:04;;;;;;;12.77;8.18;;;-1.00;99.90;;;;;;5091497;28;20139;-67
2024/01/17 07:05:30;;;;;;;13.02;8.77;;;-1.00;99.90;;;;;;5073126;28;20036;-67
2024/01/17 07:07:56;;;;;;;18.65;9.95;;;-1.10;99.90;;;;;;5089736;28;20483;-67
2024/01/17 07:10:23;;;;;;;18.45;10.05;;;-1.10;99.90;;;;;;5090668;28;20051;-67
2024/01/17 07:12:50;;;;;;;15.95;8.88;;;-1.20;99.90;;;;;;5072563;28;20117;-68
2024/01/17 07:15:17;;;;;;;15.70;9.63;;;-1.20;99.90;;;;;;5072593;28;20040;-66
2024/01/17 07:17:43;;;;;;;15.38;8.77;;;-1.20;99.90;;;;;;5072081;28;20126;-67
2024/01/17 07:20:10;;;;;;;15.18;8.95;;;-1.00;99.90;;;;;;5090544;28;20465;-65
2024/01/17 07:22:44;;;;;;;16.83;9.00;;;-1.10;99.90;;;;;;5090065;28;20116;-66
2024/01/17 07:25:12;;;;;;;15.82;9.10;;;-1.10;99.90;;;;;;5090644;28;20044;-67
2024/01/17 07:27:45;;;;;;;16.48;9.18;;;-1.10;99.90;;;;;;5090288;28;20054;-67
2024/01/17 07:30:11;;;;;;;15.60;9.15;;;-1.30;99.90;;;;;;5071771;28;20047;-67
2024/01/17 07:32:38;;;;;;;18.25;9.35;;;-1.10;99.90;;;;;;5071717;28;20052;-67
2024/01/17 07:35:05;;;;;;;13.05;8.63;;;-1.10;99.90;;;;;;5090139;28;20044;-67
2024/01/17 07:37:31;;;;;;;16.48;8.98;;;-1.20;99.90;;;;;;5070825;28;20383;-66
2024/01/17 07:39:57;;;;;;;19.75;9.65;;;-1.20;99.90;;;;;;5089451;28;20044;-66
2024/01/17 07:42:23;;;;;;;17.42;9.15;;;-1.20;99.90;;;;;;5071167;28;20105;-66
2024/01/17 07:44:49;;;;;;;14.90;8.75;;;-1.00;99.90;;;;;;5071682;28;20383;-66
2024/01/17 07:47:15;;;;;;;15.68;8.63;;;-1.10;99.90;;;;;;5071165;28;20129;-66
2024/01/17 07:49:41;;;;;;;16.95;8.55;;;-1.10;99.90;;;;;;5090131;28;20044;-67
2024/01/17 07:52:07;;;;;;;16.17;8.63;;;-1.20;99.90;;;;;;5089169;28;20036;-67
2024/01/17 07:54:33;;;;;;;19.58;9.60;;;-1.10;99.90;;;;;;5070809;28;20047;-67
2024/01/17 07:56:59;;;;;;;14.38;7.97;;;-1.10;99.90;;;;;;5071654;28;20044;-67
2024/01/17 07:59:28;;;;;;;16.23;8.73;;;-1.20;99.90;;;;;;5054957;28;20079;-67
2024/01/17 08:01:54;;;;;;;15.77;10.30;;;-1.20;99.90;;;;;;5071329;28;20115;-66
2024/01/17 08:04:20;;;;;;;17.27;9.10;;;-1.20;99.90;;;;;;5086393;28;20032;-66
2024/01/17 08:06:46;;;;;;;17.13;9.48;;;-1.20;99.90;;;;;;5088956;28;20047;-67
2024/01/17 08:09:20;;;;;;;20.30;9.13;;;-1.00;99.90;;;;;;5052706;28;20056;-67
2024/01/17 08:11:51;;;;;;;14.00;8.27;;;-1.00;99.90;;;;;;5046433;28;20047;-66
2024/01/17 08:14:16;;;;;;;16.05;8.48;;;-1.10;99.90;;;;;;5049185;28;20102;-67
2024/01/17 08:16:45;;;;;;;17.17;8.88;;;-1.10;99.90;;;;;;5047866;28;20123;-67
2024/01/17 08:19:11;;;;;;;19.52;9.25;;;-1.00;99.90;;;;;;5049286;28;20033;-66
2024/01/17 08:21:37;;;;;;;16.05;9.10;;;-1.00;99.90;;;;;;5049007;28;20075;-66
2024/01/17 08:24:03;;;;;;;18.88;8.88;;;-1.10;99.90;;;;;;5047587;28;20056;-67
2024/01/17 08:26:29;;;;;;;15.18;9.73;;;-1.00;99.90;;;;;;5049478;28;20045;-66
2024/01/17 08:28:56;;;;;;;14.75;7.95;;;-0.90;99.90;;;;;;5047803;28;20347;-67
2024/01/17 08:31:22;;;;;;;21.42;9.80;;;-1.00;99.90;;;;;;5047477;28;20071;-67
2024/01/17 08:33:49;;;;;;;10.90;7.38;;;-1.00;99.90;;;;;;5049320;28;20045;-67
2024/01/17 08:36:15;;;;;;;16.25;8.27;;;-0.90;99.90;;;;;;5047679;28;20103;-67
2024/01/17 08:38:41;;;;;;;17.48;9.27;;;-0.90;99.90;;;;;;5049177;28;20053;-68
2024/01/17 08:41:10;;;;;;;15.73;8.18;;;-0.80;99.90;;;;;;5046726;28;20049;-65
2024/01/17 08:43:36;;;;;;;13.35;9.65;;;-0.80;99.90;;;;;;5048566;28;20119;-66
2024/01/17 08:46:02;;;;;;;11.70;7.97;;;-0.70;99.90;;;;;;5049812;28;20129;-67
2024/01/17 08:48:29;;;;;;;12.23;8.60;;;-0.70;99.90;;;;;;5048055;28;20041;-67
2024/01/17 08:50:56;;;;;;;16.40;9.00;;;-0.80;99.90;;;;;;5049394;28;20049;-67
2024/01/17 08:53:22;;;;;;;13.18;8.60;;;-0.80;99.90;;;;;;5049764;28;20053;-67
2024/01/17 08:55:48;;;;;;;17.48;9.15;;;-0.70;99.90;;;;;;5049512;28;20049;-67
2024/01/17 08:58:14;;;;;;;15.82;8.40;;;-0.70;99.90;;;;;;5049686;28;20409;-67
2024/01/17 09:00:39;;;;;;;19.23;9.38;;;-0.80;99.90;;;;;;5047674;28;20057;-67
2024/01/17 09:03:05;;;;;;;16.50;8.45;;;-0.80;99.90;;;;;;5048948;28;20053;-67
2024/01/17 09:05:31;;;;;;;10.68;8.13;;;-0.70;99.90;;;;;;5048002;28;20051;-67
2024/01/17 09:07:58;;;;;;;16.65;9.02;;;-0.70;99.90;;;;;;5047672;28;20509;-67
2024/01/17 09:10:24;;;;;;;14.45;8.82;;;-0.80;99.90;;;;;;5049353;28;20649;-67
2024/01/17 09:12:53;;;;;;;16.08;9.30;;;-0.70;99.90;;;;;;5047829;28;20059;-67
2024/01/17 09:15:18;;;;;;;15.20;9.57;;;-0.60;99.90;;;;;;5049195;28;20424;-67
2024/01/17 09:17:44;;;;;;;15.15;8.55;;;-0.70;99.90;;;;;;5047817;28;20048;-68
2024/01/17 09:20:10;;;;;;;12.38;8.93;;;-0.80;99.90;;;;;;5047534;28;20052;-67
2024/01/17 09:22:36;;;;;;;16.63;9.35;;;-0.60;99.90;;;;;;5047024;28;20454;-67
2024/01/17 09:25:02;;;;;;;17.40;9.23;;;-0.70;99.90;;;;;;5048964;28;20057;-67
2024/01/17 09:27:28;;;;;;;22.00;8.90;;;-0.60;99.90;;;;;;5048704;28;20053;-67
2024/01/17 09:29:54;;;;;;;13.93;8.45;;;-0.40;99.90;;;;;;5048357;28;20052;-67
2024/01/17 09:32:20;;;;;;;16.67;9.52;;;-0.20;99.90;;;;;;5047203;28;20430;-66
2024/01/17 09:34:47;;;;;;;12.00;7.88;;;-0.10;99.90;;;;;;5048570;28;20124;-67
2024/01/17 09:37:16;;;;;;;16.30;9.30;;;-0.30;99.90;;;;;;5047061;28;20083;-67
2024/01/17 09:39:45;;;;;;;12.95;8.43;;;-0.10;99.90;;;;;;5047061;28;20076;-67
2024/01/17 09:42:14;;;;;;;17.90;9.05;;;-0.30;99.90;;;;;;5048089;28;20032;-66
2024/01/17 09:44:40;;;;;;;14.52;8.55;;;-0.30;99.90;;;;;;5046519;28;20064;-66
2024/01/17 09:47:08;;;;;;;17.88;8.82;;;-0.10;99.90;;;;;;5047125;28;20084;-67
2024/01/17 09:49:35;;;;;;;16.83;8.48;;;-0.30;99.90;;;;;;5045798;28;20051;-68
2024/01/17 09:52:05;;;;;;;13.70;8.70;;;-0.20;99.90;;;;;;5029143;28;20044;-68
2024/01/17 09:54:41;;;;;;;18.38;9.30;;;-0.30;99.90;;;;;;5044302;28;20049;-68
2024/01/17 09:57:07;;;;;;;16.23;8.90;;;0.00;99.90;;;;;;5046402;28;20085;-68
2024/01/17 09:59:38;;;;;;;15.88;8.88;;;0.00;99.90;;;;;;5045808;28;20516;-67
2024/01/17 10:02:06;;;;;;;13.35;9.38;;;0.20;99.90;;;;;;5047059;28;20392;-67
2024/01/17 10:04:34;;;;;;;19.98;9.23;;;0.10;99.90;;;;;;5046900;28;20657;-67
2024/01/17 10:07:00;;;;;;;18.60;8.50;;;0.20;99.90;;;;;;5048426;28;20143;-67
2024/01/17 10:09:26;;;;;;;13.50;8.43;;;0.20;99.90;;;;;;5080076;28;20353;-67
2024/01/17 10:11:52;;;;;;;14.57;9.20;;;0.30;99.90;;;;;;5070152;28;20056;-67
2024/01/17 10:14:20;;;;;;;15.73;9.52;;;0.20;99.90;;;;;;5069775;28;20040;-67
2024/01/17 10:16:46;;;;;;;19.48;9.55;;;0.30;99.90;;;;;;5070533;28;20048;-67
2024/01/17 10:19:12;;;;;;;15.43;8.70;;;0.40;99.90;;;;;;5070992;28;20036;-67
2024/01/17 10:21:39;;;;;;;16.20;9.38;;;0.40;99.90;;;;;;5088810;28;20105;-66
2024/01/17 10:24:05;;;;;;;13.57;8.02;;;0.40;99.90;;;;;;5070462;28;20105;-68
2024/01/17 10:26:30;;;;;;;18.80;9.55;;;0.40;99.90;;;;;;5088672;28;20036;-69
2024/01/17 10:28:57;;;;;;;14.35;8.00;;;0.40;99.90;;;;;;5089104;28;20483;-68
2024/01/17 10:31:24;;;;;;;17.23;8.63;;;0.50;99.90;;;;;;5088848;28;20112;-67
2024/01/17 10:33:53;;;;;;;17.50;8.70;;;0.50;99.90;;;;;;5070556;28;20445;-67
2024/01/17 10:36:19;;;;;;;15.50;9.35;;;0.40;99.90;;;;;;5053476;28;20040;-67
2024/01/17 10:38:49;;;;;;;14.50;9.15;;;0.40;99.90;;;;;;5088440;28;20085;-67
2024/01/17 10:41:15;;;;;;;13.65;8.77;;;0.20;99.90;;;;;;5069971;28;20040;-67
2024/01/17 10:43:58;;;;;;;14.95;8.63;;;0.20;99.90;;;;;;5070323;28;20325;-67
2024/01/17 10:46:24;;;;;;;16.50;9.05;;;0.20;99.90;;;;;;5070252;28;20040;-67
2024/01/17 10:48:51;;;;;;;14.68;8.02;;;0.30;99.90;;;;;;5070285;28;20101;-67
2024/01/17 10:51:21;;;;;;;19.23;8.95;;;0.50;99.90;;;;;;5070382;28;20430;-67
2024/01/17 10:53:51;;;;;;;18.70;8.57;;;0.30;99.90;;;;;;5053197;28;20163;-67
2024/01/17 10:56:19;;;;;;;16.95;8.82;;;0.40;99.90;;;;;;5088737;28;20127;-67
2024/01/17 10:58:47;;;;;;;18.90;10.15;;;0.50;99.90;;;;;;5070598;28;20097;-67
2024/01/17 11:01:17;;;;;;;15.90;8.98;;;0.50;99.90;;;;;;5068658;28;20051;-67
2024/01/17 11:03:46;;;;;;;19.08;8.63;;;0.50;99.90;;;;;;5069741;28;20121;-67
2024/01/17 11:06:12;;;;;;;16.35;9.77;;;0.60;99.90;;;;;;5053037;28;20718;-67
2024/01/17 11:08:41;;;;;;;15.00;9.05;;;0.50;99.90;;;;;;5087972;28;20512;-67
2024/01/17 11:11:09;;;;;;;16.85;8.73;;;0.40;99.90;;;;;;5071217;28;20150;-67
2024/01/17 11:13:35;;;;;;;11.60;8.20;;;0.50;99.90;;;;;;5073032;28;20078;-67
2024/01/17 11:16:03;;;;;;;17.02;9.20;;;0.60;99.90;;;;;;5091860;28;20429;-67
2024/01/17 11:18:34;;;;;;;15.07;8.40;;;0.60;99.90;;;;;;5073103;28;20048;-67
2024/01/17 11:21:01;;;;;;;16.48;8.48;;;0.70;99.90;;;;;;5070048;28;20052;-67
2024/01/17 11:23:46;;;;;;;18.27;9.30;;;0.60;99.90;;;;;;5090220;28;20109;-67
2024/01/17 11:26:30;;;;;;;18.58;8.57;;;0.70;99.90;;;;;;5090538;28;20040;-67
2024/01/17 11:29:18;;;;;;;14.95;9.02;;;0.80;99.90;;;;;;5073253;28;20067;-67
2024/01/17 11:32:22;;;;;;;16.15;8.57;;;0.80;99.90;;;;;;5056830;28;20660;-67
2024/01/17 11:34:48;;;;;;;18.70;8.82;;;0.80;99.90;;;;;;5039773;28;20571;-68
2024/01/17 11:37:33;;;;;;;17.52;9.27;;;0.80;99.90;;;;;;5072509;28;20042;-67
2024/01/17 11:40:01;;;;;;;13.82;9.00;;;0.80;99.90;;;;;;5055756;28;20047;-65
2024/01/17 11:42:27;;;;;;;14.88;8.38;;;1.10;99.90;;;;;;5072479;28;20047;-65
2024/01/17 11:44:53;;;;;;;17.88;9.50;;;1.00;99.90;;;;;;5054299;28;20059;-66
2024/01/17 11:47:22;;;;;;;17.80;8.13;;;0.90;99.90;;;;;;5071464;28;20047;-66
2024/01/17 11:49:48;;;;;;;17.15;9.55;;;0.90;99.90;;;;;;5071875;28;20043;-67
2024/01/17 11:52:37;;;;;;;15.73;10.05;;;0.80;99.90;;;;;;5069616;28;20044;-67
2024/01/17 11:55:05;;;;;;;18.05;9.00;;;0.90;99.90;;;;;;5088065;28;20136;-67
2024/01/17 11:57:36;;;;;;;19.20;9.43;;;0.80;99.90;;;;;;5070751;28;20043;-67
2024/01/17 12:00:06;;;;;;;19.55;10.75;;;0.90;99.90;;;;;;5054595;28;20119;-67
2024/01/17 12:02:49;;;;;;;17.67;9.60;;;0.80;99.90;;;;;;5071053;28;20040;-67
2024/01/17 12:05:15;;;;;;;20.25;10.35;;;0.80;99.90;;;;;;5070878;28;20047;-67
2024/01/17 12:07:43;;;;;;;16.38;10.18;;;0.80;99.90;;;;;;5071433;28;20043;-67
2024/01/17 12:10:10;;;;;;;16.00;8.80;;;0.80;99.90;;;;;;5071082;28;20266;-67
2024/01/17 12:12:43;;;;;;;15.52;10.10;;;0.90;99.90;;;;;;5054970;28;20062;-67
2024/01/17 12:15:09;;;;;;;13.63;8.55;;;0.90;99.90;;;;;;5071661;28;20124;-67
2024/01/17 12:17:40;;;;;;;19.58;9.32;;;1.00;99.90;;;;;;5090014;28;20035;-67
2024/01/17 12:20:07;;;;;;;16.48;9.43;;;1.10;99.90;;;;;;5089889;28;20032;-66
2024/01/17 12:22:34;;;;;;;13.90;8.30;;;1.00;99.90;;;;;;5070349;28;20154;-66
2024/01/17 12:25:00;;;;;;;13.63;7.70;;;1.00;99.90;;;;;;5089445;28;20048;-66
2024/01/17 12:27:31;;;;;;;14.95;7.95;;;1.10;99.90;;;;;;5053776;28;20067;-66
2024/01/17 12:30:07;;;;;;;21.00;8.98;;;1.00;99.90;;;;;;5052993;28;20173;-67
2024/01/17 12:32:36;;;;;;;13.88;7.50;;;1.10;99.90;;;;;;5070666;28;20142;-64
2024/01/17 12:35:03;;;;;;;13.05;7.32;;;1.00;99.90;;;;;;5071187;28;20055;-66
2024/01/17 12:37:42;;;;;;;17.77;7.53;;;1.00;99.90;;;;;;5142652;27;1293067;-66